createdAt,value
2023-04-12T00:02:24.904Z,93.10
2023-04-12T00:06:32.687Z,92.90
2023-04-12T00:10:36.153Z,92.40
2023-04-12T00:14:39.760Z,92.60
2023-04-12T00:18:45.914Z,92.70
2023-04-12T00:22:50.555Z,92.40
2023-04-12T00:26:53.939Z,93.00
2023-04-12T00:30:57.402Z,93.20
2023-04-12T00:35:02.368Z,93.80
2023-04-12T00:39:06.488Z,92.60
2023-04-12T00:43:10.441Z,92.70
2023-04-12T00:47:14.760Z,92.70
2023-04-12T00:51:22.480Z,92.90
2023-04-12T00:55:26.428Z,93.10
2023-04-12T00:59:29.903Z,92.80
2023-04-12T01:03:33.703Z,92.70
2023-04-12T01:07:51.662Z,92.40
2023-04-12T01:12:07.593Z,92.70
2023-04-12T01:16:22.533Z,92.50
2023-04-12T01:20:31.509Z,92.70
2023-04-12T01:24:50.323Z,92.80
2023-04-12T01:28:56.637Z,93.20
2023-04-12T01:33:05.024Z,93.50
2023-04-12T01:37:09.102Z,94.00
2023-04-12T01:41:13.439Z,94.90
2023-04-12T01:45:18.284Z,95.40
2023-04-12T01:49:25.891Z,95.80
2023-04-12T01:53:34.337Z,95.60
2023-04-12T01:57:39.180Z,96.30
2023-04-12T02:01:45.255Z,97.00
2023-04-12T02:05:48.968Z,96.90
2023-04-12T02:09:52.569Z,97.40
2023-04-12T02:13:56.657Z,97.50
2023-04-12T02:18:03.492Z,97.30
2023-04-12T02:22:08.399Z,96.90
2023-04-12T02:26:11.955Z,97.00
2023-04-12T02:30:15.946Z,96.90
2023-04-12T02:34:21.614Z,96.70
2023-04-12T02:38:25.092Z,96.70
2023-04-12T02:42:28.678Z,97.30
2023-04-12T02:46:32.253Z,97.70
2023-04-12T02:50:38.180Z,98.30
2023-04-12T02:54:41.581Z,99.00
2023-04-12T02:58:45.269Z,99.90
2023-04-12T03:02:50.072Z,99.90
2023-04-12T03:06:55.279Z,99.90
2023-04-12T03:10:58.935Z,99.90
2023-04-12T03:15:02.812Z,99.90
2023-04-12T03:19:06.730Z,99.90
2023-04-12T03:23:11.706Z,99.90
2023-04-12T03:27:15.490Z,99.90
2023-04-12T03:31:21.116Z,99.90
2023-04-12T03:35:24.910Z,99.90
2023-04-12T03:39:29.820Z,99.90
2023-04-12T03:43:36.206Z,99.90
2023-04-12T03:47:39.932Z,99.90
2023-04-12T03:51:44.008Z,99.90
2023-04-12T03:55:48.972Z,99.90
2023-04-12T03:59:53.040Z,99.90
2023-04-12T04:03:57.330Z,99.90
2023-04-12T04:08:02.558Z,99.90
2023-04-12T04:12:09.276Z,99.90
2023-04-12T04:16:13.286Z,99.90
2023-04-12T04:20:18.113Z,99.90
2023-04-12T04:24:22.552Z,99.90
2023-04-12T04:28:27.945Z,99.90
2023-04-12T04:32:31.748Z,99.90
2023-04-12T04:36:38.956Z,99.90
2023-04-12T04:40:42.379Z,99.90
2023-04-12T04:44:47.946Z,99.90
2023-04-12T04:48:55.296Z,99.90
2023-04-12T04:53:00.083Z,99.90
2023-04-12T04:57:08.041Z,99.90
2023-04-12T05:01:13.799Z,99.90
2023-04-12T05:05:17.741Z,99.90
2023-04-12T05:09:21.352Z,99.90
2023-04-12T05:13:25.117Z,99.90
2023-04-12T05:17:30.234Z,99.90
2023-04-12T05:21:35.285Z,99.90
2023-04-12T05:25:44.655Z,99.90
2023-04-12T05:29:48.423Z,99.90
2023-04-12T05:33:54.833Z,99.90
2023-04-12T05:37:58.289Z,99.90
2023-04-12T05:42:02.280Z,99.90
2023-04-12T05:46:07.979Z,99.90
2023-04-12T05:50:13.410Z,99.90
2023-04-12T05:54:21.126Z,99.90
2023-04-12T05:58:24.786Z,99.90
2023-04-12T06:02:28.583Z,99.90
2023-04-12T06:06:33.804Z,99.90
2023-04-12T06:10:37.358Z,99.90
2023-04-12T06:14:40.757Z,99.90
2023-04-12T06:18:44.345Z,99.90
2023-04-12T06:22:49.155Z,99.10
2023-04-12T06:26:52.720Z,98.40
2023-04-12T06:30:56.665Z,97.70
2023-04-12T06:35:00.307Z,96.70
2023-04-12T06:39:05.305Z,95.50
2023-04-12T06:43:09.095Z,94.70
2023-04-12T06:47:12.559Z,94.30
2023-04-12T06:51:16.296Z,94.20
2023-04-12T06:55:21.660Z,94.00
2023-04-12T06:59:25.177Z,93.10
2023-04-12T07:03:31.905Z,92.10
2023-04-12T07:07:35.443Z,91.60
2023-04-12T07:11:40.566Z,91.90
2023-04-12T07:15:45.354Z,91.80
2023-04-12T07:19:50.466Z,90.70
2023-04-12T07:23:54.033Z,90.60
2023-04-12T07:27:58.948Z,89.50
2023-04-12T07:32:02.368Z,90.60
2023-04-12T07:36:06.889Z,90.30
2023-04-12T07:40:10.848Z,87.90
2023-04-12T07:44:16.106Z,87.90
2023-04-12T07:48:19.528Z,88.10
2023-04-12T07:52:23.233Z,87.90
2023-04-12T07:56:27.218Z,86.10
2023-04-12T08:00:34.474Z,84.60
2023-04-12T08:04:38.629Z,83.70
2023-04-12T08:08:42.270Z,80.80
2023-04-12T08:12:45.926Z,79.90
2023-04-12T08:16:50.786Z,80.10
2023-04-12T08:20:54.369Z,78.80
2023-04-12T08:24:57.992Z,77.40
2023-04-12T08:29:02.025Z,78.80
2023-04-12T08:33:07.059Z,79.40
2023-04-12T08:37:10.840Z,76.00
2023-04-12T08:41:15.221Z,77.40
2023-04-12T08:45:19.458Z,76.90
2023-04-12T08:49:25.207Z,77.30
2023-04-12T08:53:29.048Z,76.20
2023-04-12T08:57:32.882Z,76.20
2023-04-12T09:01:37.273Z,75.60
2023-04-12T09:05:42.280Z,69.40
2023-04-12T09:09:48.319Z,71.00
2023-04-12T09:13:52.160Z,71.20
2023-04-12T09:18:08.389Z,71.70
2023-04-12T09:22:13.513Z,73.40
2023-04-12T09:26:29.919Z,73.30
2023-04-12T09:30:43.416Z,73.50
2023-04-12T09:34:58.007Z,72.90
2023-04-12T09:39:03.386Z,75.00
2023-04-12T09:43:07.653Z,75.10
2023-04-12T09:47:11.209Z,73.90
2023-04-12T09:51:14.957Z,75.40
2023-04-12T09:55:21.207Z,74.40
2023-04-12T09:59:28.546Z,73.00
2023-04-12T10:03:32.694Z,73.40
2023-04-12T10:07:38.436Z,71.50
2023-04-12T10:11:45.361Z,71.60
2023-04-12T10:15:52.781Z,70.60
2023-04-12T10:19:57.826Z,69.00
2023-04-12T10:24:01.895Z,69.50
2023-04-12T10:28:18.888Z,68.40
2023-04-12T10:32:24.457Z,68.50
2023-04-12T10:36:58.058Z,69.10
2023-04-12T10:41:25.704Z,67.70
2023-04-12T10:45:41.800Z,69.20
2023-04-12T10:50:25.207Z,68.40
2023-04-12T10:54:36.536Z,67.70
2023-04-12T10:59:00.272Z,68.50
2023-04-12T11:03:12.944Z,68.50
2023-04-12T11:07:17.383Z,67.70
2023-04-12T11:11:22.895Z,68.60
2023-04-12T11:15:30.932Z,66.00
2023-04-12T11:19:39.234Z,68.10
2023-04-12T11:23:47.353Z,68.90
2023-04-12T11:27:52.445Z,69.60
2023-04-12T11:31:56.540Z,69.80
2023-04-12T11:36:04.692Z,69.10
2023-04-12T11:40:10.802Z,68.40
2023-04-12T11:44:14.998Z,68.30
2023-04-12T11:48:18.759Z,71.10
2023-04-12T11:52:29.961Z,68.30
2023-04-12T11:56:33.627Z,68.00
2023-04-12T12:00:38.204Z,67.80
2023-04-12T12:04:44.780Z,66.70
2023-04-12T12:08:51.172Z,66.40
2023-04-12T12:12:59.227Z,67.60
2023-04-12T12:17:03.320Z,68.30
2023-04-12T12:21:10.919Z,68.30
2023-04-12T12:25:15.824Z,70.40
2023-04-12T12:29:19.873Z,68.10
2023-04-12T12:33:32.059Z,67.50
2023-04-12T12:37:50.845Z,65.30
2023-04-12T12:41:57.391Z,66.70
2023-04-12T12:46:01.023Z,66.10
2023-04-12T12:50:04.662Z,65.90
2023-04-12T12:54:08.381Z,65.20
2023-04-12T12:58:13.184Z,64.00
2023-04-12T13:02:20.087Z,62.00
2023-04-12T13:06:25.951Z,63.10
2023-04-12T13:10:29.570Z,62.10
2023-04-12T13:14:34.414Z,64.90
2023-04-12T13:18:38.284Z,63.90
2023-04-12T13:22:41.719Z,63.10
2023-04-12T13:26:45.145Z,63.10
2023-04-12T13:30:49.936Z,64.40
2023-04-12T13:34:53.772Z,62.60
2023-04-12T13:38:57.569Z,63.20
2023-04-12T13:43:01.292Z,59.50
2023-04-12T13:47:06.457Z,59.20
2023-04-12T13:51:10.438Z,58.20
2023-04-12T13:55:14.344Z,58.00
2023-04-12T13:59:17.876Z,57.20
2023-04-12T14:03:22.896Z,57.40
2023-04-12T14:07:26.426Z,57.50
2023-04-12T14:11:30.085Z,59.00
2023-04-12T14:15:33.513Z,58.90
2023-04-12T14:19:38.690Z,60.60
2023-04-12T14:23:42.632Z,59.90
2023-04-12T14:27:46.478Z,57.90
2023-04-12T14:31:49.983Z,57.50
2023-04-12T14:35:54.830Z,57.20
2023-04-12T14:39:58.430Z,56.50
2023-04-12T14:44:02.087Z,57.20
2023-04-12T14:48:05.814Z,55.60
2023-04-12T14:52:10.903Z,53.60
2023-04-12T14:56:25.349Z,54.10
2023-04-12T15:00:31.054Z,55.50
2023-04-12T15:04:36.171Z,57.50
2023-04-12T15:08:43.144Z,59.10
2023-04-12T15:12:46.847Z,61.00
2023-04-12T15:16:50.588Z,60.40
2023-04-12T15:20:55.197Z,63.10
2023-04-12T15:25:00.024Z,64.50
2023-04-12T15:29:03.957Z,67.90
2023-04-12T15:33:07.771Z,67.20
2023-04-12T15:37:11.991Z,67.70
2023-04-12T15:41:16.916Z,68.50
2023-04-12T15:45:20.593Z,68.40
2023-04-12T15:49:26.427Z,70.70
2023-04-12T15:53:29.956Z,69.50
2023-04-12T15:57:36.769Z,71.20
2023-04-12T16:01:40.424Z,69.00
2023-04-12T16:05:44.555Z,70.30
2023-04-12T16:09:48.171Z,75.40
2023-04-12T16:13:54.365Z,75.20
2023-04-12T16:17:58.802Z,75.10
2023-04-12T16:22:03.913Z,77.80
2023-04-12T16:26:07.815Z,76.90
2023-04-12T16:30:15.901Z,79.10
2023-04-12T16:34:22.014Z,80.40
2023-04-12T16:38:26.230Z,82.60
2023-04-12T16:42:32.197Z,79.50
2023-04-12T16:46:38.359Z,84.10
2023-04-12T16:50:45.092Z,85.10
2023-04-12T16:54:49.254Z,87.90
2023-04-12T16:58:53.292Z,87.20
2023-04-12T17:02:59.781Z,88.30
2023-04-12T17:07:04.229Z,88.60
2023-04-12T17:11:08.678Z,88.40
2023-04-12T17:15:13.737Z,90.50
2023-04-12T17:19:20.510Z,90.70
2023-04-12T17:23:24.658Z,90.50
2023-04-12T17:27:30.225Z,91.20
2023-04-12T17:35:43.391Z,92.10
2023-04-12T17:39:47.622Z,92.00
2023-04-12T17:43:52.999Z,92.80
2023-04-12T17:47:57.739Z,93.10
2023-04-12T17:52:04.064Z,93.70
2023-04-12T17:56:08.672Z,94.00
2023-04-12T18:00:21.004Z,94.50
2023-04-12T18:04:29.654Z,95.30
2023-04-12T18:08:37.749Z,95.60
2023-04-12T18:12:41.878Z,95.60
2023-04-12T18:16:45.913Z,95.50
2023-04-12T18:20:49.686Z,95.90
2023-04-12T18:24:57.061Z,96.60
2023-04-12T18:29:04.484Z,96.90
2023-04-12T18:33:09.612Z,97.60
2023-04-12T18:37:14.984Z,97.60
2023-04-12T18:41:24.786Z,98.20
2023-04-12T18:45:31.145Z,97.90
2023-04-12T18:49:39.952Z,98.10
2023-04-12T18:53:50.116Z,98.40
2023-04-12T18:57:56.282Z,98.90
2023-04-12T19:02:00.579Z,99.00
2023-04-12T19:06:05.705Z,99.30
2023-04-12T19:10:16.239Z,99.40
2023-04-12T19:14:24.041Z,99.50
2023-04-12T19:18:31.165Z,99.60
2023-04-12T19:22:38.566Z,99.40
2023-04-12T19:27:04.547Z,99.20
2023-04-12T19:31:10.865Z,99.90
2023-04-12T19:35:16.912Z,99.50
2023-04-12T19:39:23.576Z,99.90
2023-04-12T19:43:28.775Z,99.90
2023-04-12T19:47:34.989Z,99.90
2023-04-12T19:51:40.739Z,99.80
2023-04-12T19:55:46.085Z,99.80
2023-04-12T19:59:51.724Z,99.80
2023-04-12T20:03:57.623Z,99.80
2023-04-12T20:08:06.470Z,99.70
2023-04-12T20:12:12.228Z,99.90
2023-04-12T20:20:36.443Z,99.90
2023-04-12T20:24:42.329Z,99.90
2023-04-12T20:28:47.644Z,99.90
2023-04-12T20:32:54.645Z,99.90
2023-04-12T20:37:00.973Z,99.90
2023-04-12T20:41:05.626Z,99.90
2023-04-12T20:45:11.846Z,99.90
2023-04-12T20:49:15.668Z,99.90
2023-04-12T20:53:21.587Z,99.90
2023-04-12T20:57:26.718Z,99.90
2023-04-12T21:01:30.887Z,99.90
2023-04-12T21:05:34.416Z,99.90
2023-04-12T21:09:39.504Z,99.90
2023-04-12T21:13:44.729Z,99.90
2023-04-12T21:17:48.273Z,99.90
2023-04-12T21:21:52.076Z,99.90
2023-04-12T21:25:57.137Z,99.90
2023-04-12T21:30:00.633Z,99.90
2023-04-12T21:34:04.324Z,99.90
2023-04-12T21:38:07.810Z,99.90
2023-04-12T21:42:12.822Z,99.90
2023-04-12T21:46:16.574Z,99.90
2023-04-12T21:50:21.776Z,99.90
2023-04-12T21:54:26.919Z,99.90
2023-04-12T21:58:34.327Z,99.90
2023-04-12T22:02:37.954Z,99.90
2023-04-12T22:06:44.577Z,99.90
2023-04-12T22:10:49.117Z,99.90
2023-04-12T22:14:54.209Z,99.90
2023-04-12T22:18:59.413Z,99.90
2023-04-12T22:23:03.337Z,99.90
2023-04-12T22:27:07.155Z,99.90
2023-04-12T22:31:16.310Z,99.90
2023-04-12T22:35:20.701Z,99.90
2023-04-12T22:39:24.331Z,99.90
2023-04-12T22:43:34.384Z,99.90
2023-04-12T22:47:41.672Z,99.90
2023-04-12T22:51:45.392Z,99.90
2023-04-12T22:55:48.779Z,99.90
2023-04-12T22:59:53.630Z,99.90
2023-04-12T23:04:01.165Z,99.90
2023-04-12T23:08:05.083Z,99.90
2023-04-12T23:12:09.034Z,99.90
2023-04-12T23:16:12.570Z,99.90
2023-04-12T23:20:17.687Z,99.90
2023-04-12T23:24:21.159Z,99.90
2023-04-12T23:28:26.704Z,99.90
2023-04-12T23:32:30.256Z,99.90
2023-04-12T23:36:35.451Z,99.90
2023-04-12T23:40:38.937Z,99.90
2023-04-12T23:44:42.695Z,99.90
2023-04-12T23:48:46.090Z,99.90
2023-04-12T23:52:51.091Z,99.90
2023-04-12T23:56:54.530Z,99.90
